sensor_id;sensor_type;location;lat;lon;timestamp;temperature;humidity
23633;DHT22;11993;48.748;9.166;2024-02-15T00:01:54;10.70;82.20
23633;DHT22;11993;48.748;9.166;2024-02-15T00:04:19;10.80;81.90
23633;DHT22;11993;48.748;9.166;2024-02-15T00:06:45;10.80;81.80
23633;DHT22;11993;48.748;9.166;2024-02-15T00:09:11;10.90;81.60
23633;DHT22;11993;48.748;9.166;2024-02-15T00:11:36;10.90;81.50
23633;DHT22;11993;48.748;9.166;2024-02-15T00:14:02;10.80;81.70
23633;DHT22;11993;48.748;9.166;2024-02-15T00:16:27;10.90;81.70
23633;DHT22;11993;48.748;9.166;2024-02-15T00:18:53;10.90;81.70
23633;DHT22;11993;48.748;9.166;2024-02-15T00:21:20;10.90;81.50
23633;DHT22;11993;48.748;9.166;2024-02-15T00:23:47;10.80;81.70
23633;DHT22;11993;48.748;9.166;2024-02-15T00:26:12;10.80;81.70
23633;DHT22;11993;48.748;9.166;2024-02-15T00:28:38;10.80;81.60
23633;DHT22;11993;48.748;9.166;2024-02-15T00:31:06;10.80;81.80
23633;DHT22;11993;48.748;9.166;2024-02-15T00:33:31;10.80;81.60
23633;DHT22;11993;48.748;9.166;2024-02-15T00:35:57;10.90;81.60
23633;DHT22;11993;48.748;9.166;2024-02-15T00:38:23;10.90;81.40
23633;DHT22;11993;48.748;9.166;2024-02-15T00:40:49;10.80;81.70
23633;DHT22;11993;48.748;9.166;2024-02-15T00:43:14;10.80;81.90
23633;DHT22;11993;48.748;9.166;2024-02-15T00:45:40;10.70;81.70
23633;DHT22;11993;48.748;9.166;2024-02-15T00:48:06;10.70;81.70
23633;DHT22;11993;48.748;9.166;2024-02-15T00:50:32;10.80;81.50
23633;DHT22;11993;48.748;9.166;2024-02-15T00:52:58;10.70;81.90
23633;DHT22;11993;48.748;9.166;2024-02-15T00:55:23;10.60;81.90
23633;DHT22;11993;48.748;9.166;2024-02-15T00:57:49;10.70;81.90
23633;DHT22;11993;48.748;9.166;2024-02-15T01:00:14;10.60;82.20
23633;DHT22;11993;48.748;9.166;2024-02-15T01:02:40;10.60;81.90
23633;DHT22;11993;48.748;9.166;2024-02-15T01:05:06;10.50;82.30
23633;DHT22;11993;48.748;9.166;2024-02-15T01:07:31;10.60;81.90
23633;DHT22;11993;48.748;9.166;2024-02-15T01:09:57;10.50;82.00
23633;DHT22;11993;48.748;9.166;2024-02-15T01:12:23;10.40;82.00
23633;DHT22;11993;48.748;9.166;2024-02-15T01:14:49;10.50;81.80
23633;DHT22;11993;48.748;9.166;2024-02-15T01:17:14;10.40;82.00
23633;DHT22;11993;48.748;9.166;2024-02-15T01:19:40;10.50;81.70
23633;DHT22;11993;48.748;9.166;2024-02-15T01:22:06;10.50;81.60
23633;DHT22;11993;48.748;9.166;2024-02-15T01:24:32;10.50;81.60
23633;DHT22;11993;48.748;9.166;2024-02-15T01:26:58;10.40;81.70
23633;DHT22;11993;48.748;9.166;2024-02-15T01:29:24;10.40;81.80
23633;DHT22;11993;48.748;9.166;2024-02-15T01:31:51;10.40;81.80
23633;DHT22;11993;48.748;9.166;2024-02-15T01:34:17;10.30;82.00
23633;DHT22;11993;48.748;9.166;2024-02-15T01:36:42;10.20;82.30
23633;DHT22;11993;48.748;9.166;2024-02-15T01:39:08;10.20;82.30
23633;DHT22;11993;48.748;9.166;2024-02-15T01:41:33;10.30;82.10
23633;DHT22;11993;48.748;9.166;2024-02-15T01:43:59;10.20;82.20
23633;DHT22;11993;48.748;9.166;2024-02-15T01:46:24;10.20;82.30
23633;DHT22;11993;48.748;9.166;2024-02-15T01:48:50;10.30;82.20
23633;DHT22;11993;48.748;9.166;2024-02-15T01:51:17;10.30;82.30
23633;DHT22;11993;48.748;9.166;2024-02-15T01:53:43;10.20;82.30
23633;DHT22;11993;48.748;9.166;2024-02-15T01:56:11;10.20;82.40
23633;DHT22;11993;48.748;9.166;2024-02-15T01:58:39;10.20;82.50
23633;DHT22;11993;48.748;9.166;2024-02-15T02:01:06;10.20;82.40
23633;DHT22;11993;48.748;9.166;2024-02-15T02:03:32;10.20;82.30
23633;DHT22;11993;48.748;9.166;2024-02-15T02:05:57;10.10;82.70
23633;DHT22;11993;48.748;9.166;2024-02-15T02:08:25;10.10;82.60
23633;DHT22;11993;48.748;9.166;2024-02-15T02:10:51;10.10;82.40
23633;DHT22;11993;48.748;9.166;2024-02-15T02:13:16;10.10;82.50
23633;DHT22;11993;48.748;9.166;2024-02-15T02:15:42;10.00;82.80
23633;DHT22;11993;48.748;9.166;2024-02-15T02:18:08;9.90;83.00
23633;DHT22;11993;48.748;9.166;2024-02-15T02:20:35;10.00;82.90
23633;DHT22;11993;48.748;9.166;2024-02-15T02:23:09;9.90;83.10
23633;DHT22;11993;48.748;9.166;2024-02-15T02:25:38;9.90;82.90
23633;DHT22;11993;48.748;9.166;2024-02-15T02:28:04;9.70;83.40
23633;DHT22;11993;48.748;9.166;2024-02-15T02:30:31;9.70;83.40
23633;DHT22;11993;48.748;9.166;2024-02-15T02:32:58;9.70;83.50
23633;DHT22;11993;48.748;9.166;2024-02-15T02:35:25;9.70;83.30
23633;DHT22;11993;48.748;9.166;2024-02-15T02:37:51;9.70;83.20
23633;DHT22;11993;48.748;9.166;2024-02-15T02:40:18;9.70;83.40
23633;DHT22;11993;48.748;9.166;2024-02-15T02:42:52;9.70;83.40
23633;DHT22;11993;48.748;9.166;2024-02-15T02:45:19;9.70;83.60
23633;DHT22;11993;48.748;9.166;2024-02-15T02:47:45;9.70;83.50
23633;DHT22;11993;48.748;9.166;2024-02-15T02:50:12;9.60;84.00
23633;DHT22;11993;48.748;9.166;2024-02-15T02:52:38;9.60;83.80
23633;DHT22;11993;48.748;9.166;2024-02-15T02:55:05;9.70;83.50
23633;DHT22;11993;48.748;9.166;2024-02-15T02:57:34;9.60;83.60
23633;DHT22;11993;48.748;9.166;2024-02-15T03:00:02;9.50;84.00
23633;DHT22;11993;48.748;9.166;2024-02-15T03:02:36;9.70;83.60
23633;DHT22;11993;48.748;9.166;2024-02-15T03:05:05;9.60;83.80
23633;DHT22;11993;48.748;9.166;2024-02-15T03:07:35;9.40;84.00
23633;DHT22;11993;48.748;9.166;2024-02-15T03:10:04;9.40;84.10
23633;DHT22;11993;48.748;9.166;2024-02-15T03:12:33;9.50;83.80
23633;DHT22;11993;48.748;9.166;2024-02-15T03:15:01;9.40;83.90
23633;DHT22;11993;48.748;9.166;2024-02-15T03:17:27;9.30;84.20
23633;DHT22;11993;48.748;9.166;2024-02-15T03:19:52;9.20;84.50
23633;DHT22;11993;48.748;9.166;2024-02-15T03:22:18;9.30;84.50
23633;DHT22;11993;48.748;9.166;2024-02-15T03:24:44;9.30;84.30
23633;DHT22;11993;48.748;9.166;2024-02-15T03:27:09;9.40;84.10
23633;DHT22;11993;48.748;9.166;2024-02-15T03:29:38;9.40;83.80
23633;DHT22;11993;48.748;9.166;2024-02-15T03:32:04;9.40;84.10
23633;DHT22;11993;48.748;9.166;2024-02-15T03:34:30;9.30;84.00
23633;DHT22;11993;48.748;9.166;2024-02-15T03:36:56;9.20;84.30
23633;DHT22;11993;48.748;9.166;2024-02-15T03:39:23;9.20;84.40
23633;DHT22;11993;48.748;9.166;2024-02-15T03:41:49;9.20;83.90
23633;DHT22;11993;48.748;9.166;2024-02-15T03:44:14;9.10;84.50
23633;DHT22;11993;48.748;9.166;2024-02-15T03:46:40;9.20;84.20
23633;DHT22;11993;48.748;9.166;2024-02-15T03:49:08;9.10;84.00
23633;DHT22;11993;48.748;9.166;2024-02-15T03:51:36;9.10;84.40
23633;DHT22;11993;48.748;9.166;2024-02-15T03:54:02;9.00;84.60
23633;DHT22;11993;48.748;9.166;2024-02-15T03:56:29;9.00;84.80
23633;DHT22;11993;48.748;9.166;2024-02-15T03:58:57;9.00;84.60
23633;DHT22;11993;48.748;9.166;2024-02-15T04:01:24;8.90;84.60
23633;DHT22;11993;48.748;9.166;2024-02-15T04:03:50;9.00;84.80
23633;DHT22;11993;48.748;9.166;2024-02-15T04:06:16;9.00;84.90
23633;DHT22;11993;48.748;9.166;2024-02-15T04:08:42;9.10;84.60
23633;DHT22;11993;48.748;9.166;2024-02-15T04:11:07;9.00;85.00
23633;DHT22;11993;48.748;9.166;2024-02-15T04:13:34;9.10;84.90
23633;DHT22;11993;48.748;9.166;2024-02-15T04:15:59;9.00;84.70
23633;DHT22;11993;48.748;9.166;2024-02-15T04:18:25;9.00;84.90
23633;DHT22;11993;48.748;9.166;2024-02-15T04:20:50;9.10;84.60
23633;DHT22;11993;48.748;9.166;2024-02-15T04:23:17;9.10;84.60
23633;DHT22;11993;48.748;9.166;2024-02-15T04:25:42;9.10;84.60
23633;DHT22;11993;48.748;9.166;2024-02-15T04:28:09;9.20;84.40
23633;DHT22;11993;48.748;9.166;2024-02-15T04:30:36;9.20;84.40
23633;DHT22;11993;48.748;9.166;2024-02-15T04:33:04;9.10;84.50
23633;DHT22;11993;48.748;9.166;2024-02-15T04:35:31;9.10;84.60
23633;DHT22;11993;48.748;9.166;2024-02-15T04:37:56;9.20;84.10
23633;DHT22;11993;48.748;9.166;2024-02-15T04:40:23;9.20;84.20
23633;DHT22;11993;48.748;9.166;2024-02-15T04:42:48;9.10;84.30
23633;DHT22;11993;48.748;9.166;2024-02-15T04:45:14;9.10;84.30
23633;DHT22;11993;48.748;9.166;2024-02-15T04:47:41;9.20;84.00
23633;DHT22;11993;48.748;9.166;2024-02-15T04:50:07;9.30;83.80
23633;DHT22;11993;48.748;9.166;2024-02-15T04:52:33;9.20;84.00
23633;DHT22;11993;48.748;9.166;2024-02-15T04:54:58;9.30;83.90
23633;DHT22;11993;48.748;9.166;2024-02-15T04:57:25;9.20;83.70
23633;DHT22;11993;48.748;9.166;2024-02-15T04:59:58;9.30;83.70
23633;DHT22;11993;48.748;9.166;2024-02-15T05:02:25;9.50;83.20
23633;DHT22;11993;48.748;9.166;2024-02-15T05:04:51;9.40;83.30
23633;DHT22;11993;48.748;9.166;2024-02-15T05:07:21;9.40;83.10
23633;DHT22;11993;48.748;9.166;2024-02-15T05:09:48;9.30;83.40
23633;DHT22;11993;48.748;9.166;2024-02-15T05:12:22;9.20;83.40
23633;DHT22;11993;48.748;9.166;2024-02-15T05:14:51;9.40;83.30
23633;DHT22;11993;48.748;9.166;2024-02-15T05:17:17;9.30;83.50
23633;DHT22;11993;48.748;9.166;2024-02-15T05:19:42;9.20;83.50
23633;DHT22;11993;48.748;9.166;2024-02-15T05:22:08;9.30;83.30
23633;DHT22;11993;48.748;9.166;2024-02-15T05:24:33;9.20;83.50
23633;DHT22;11993;48.748;9.166;2024-02-15T05:26:59;9.30;83.50
23633;DHT22;11993;48.748;9.166;2024-02-15T05:29:25;9.10;83.70
23633;DHT22;11993;48.748;9.166;2024-02-15T05:31:50;9.10;83.90
23633;DHT22;11993;48.748;9.166;2024-02-15T05:34:17;9.10;84.00
23633;DHT22;11993;48.748;9.166;2024-02-15T05:36:43;9.00;84.00
23633;DHT22;11993;48.748;9.166;2024-02-15T05:39:08;9.10;83.80
23633;DHT22;11993;48.748;9.166;2024-02-15T05:41:37;9.10;83.60
23633;DHT22;11993;48.748;9.166;2024-02-15T05:44:02;9.20;83.50
23633;DHT22;11993;48.748;9.166;2024-02-15T05:46:32;9.10;83.30
23633;DHT22;11993;48.748;9.166;2024-02-15T05:48:57;9.10;83.50
23633;DHT22;11993;48.748;9.166;2024-02-15T05:51:23;9.10;83.40
23633;DHT22;11993;48.748;9.166;2024-02-15T05:53:49;9.10;83.20
23633;DHT22;11993;48.748;9.166;2024-02-15T05:56:15;9.20;83.00
23633;DHT22;11993;48.748;9.166;2024-02-15T05:58:41;9.10;83.20
23633;DHT22;11993;48.748;9.166;2024-02-15T06:01:07;9.20;82.80
23633;DHT22;11993;48.748;9.166;2024-02-15T06:03:37;9.20;82.70
23633;DHT22;11993;48.748;9.166;2024-02-15T06:06:04;9.10;82.80
23633;DHT22;11993;48.748;9.166;2024-02-15T06:08:34;9.10;82.90
23633;DHT22;11993;48.748;9.166;2024-02-15T06:11:00;9.10;82.90
23633;DHT22;11993;48.748;9.166;2024-02-15T06:13:26;9.00;83.20
23633;DHT22;11993;48.748;9.166;2024-02-15T06:15:52;9.10;82.90
23633;DHT22;11993;48.748;9.166;2024-02-15T06:18:23;9.00;83.20
23633;DHT22;11993;48.748;9.166;2024-02-15T06:20:54;9.00;83.30
23633;DHT22;11993;48.748;9.166;2024-02-15T06:23:23;9.00;83.40
23633;DHT22;11993;48.748;9.166;2024-02-15T06:25:51;9.00;83.10
23633;DHT22;11993;48.748;9.166;2024-02-15T06:28:18;9.00;83.20
23633;DHT22;11993;48.748;9.166;2024-02-15T06:31:02;8.90;83.00
23633;DHT22;11993;48.748;9.166;2024-02-15T06:33:46;8.90;83.00
23633;DHT22;11993;48.748;9.166;2024-02-15T06:36:30;8.90;83.10
23633;DHT22;11993;48.748;9.166;2024-02-15T06:39:14;8.90;82.50
23633;DHT22;11993;48.748;9.166;2024-02-15T06:41:59;8.90;82.50
23633;DHT22;11993;48.748;9.166;2024-02-15T06:44:26;8.90;82.60
23633;DHT22;11993;48.748;9.166;2024-02-15T06:46:52;8.90;82.60
23633;DHT22;11993;48.748;9.166;2024-02-15T06:49:17;8.90;82.40
23633;DHT22;11993;48.748;9.166;2024-02-15T06:51:43;8.90;82.40
23633;DHT22;11993;48.748;9.166;2024-02-15T06:54:09;8.90;82.40
23633;DHT22;11993;48.748;9.166;2024-02-15T06:56:38;9.00;82.00
23633;DHT22;11993;48.748;9.166;2024-02-15T06:59:08;9.00;81.70
23633;DHT22;11993;48.748;9.166;2024-02-15T07:01:35;8.90;81.90
23633;DHT22;11993;48.748;9.166;2024-02-15T07:04:01;8.90;82.10
23633;DHT22;11993;48.748;9.166;2024-02-15T07:06:28;8.90;82.50
23633;DHT22;11993;48.748;9.166;2024-02-15T07:08:54;8.90;82.50
23633;DHT22;11993;48.748;9.166;2024-02-15T07:11:22;8.90;82.50
23633;DHT22;11993;48.748;9.166;2024-02-15T07:13:48;9.10;82.00
23633;DHT22;11993;48.748;9.166;2024-02-15T07:16:13;9.00;82.30
23633;DHT22;11993;48.748;9.166;2024-02-15T07:18:40;9.10;81.70
23633;DHT22;11993;48.748;9.166;2024-02-15T07:21:06;9.30;81.10
23633;DHT22;11993;48.748;9.166;2024-02-15T07:23:39;9.30;80.80
23633;DHT22;11993;48.748;9.166;2024-02-15T07:26:06;9.50;80.40
23633;DHT22;11993;48.748;9.166;2024-02-15T07:28:32;9.70;79.80
23633;DHT22;11993;48.748;9.166;2024-02-15T07:30:57;9.80;79.20
23633;DHT22;11993;48.748;9.166;2024-02-15T07:33:23;10.10;78.70
23633;DHT22;11993;48.748;9.166;2024-02-15T07:35:49;10.10;78.10
23633;DHT22;11993;48.748;9.166;2024-02-15T07:38:19;10.20;77.30
23633;DHT22;11993;48.748;9.166;2024-02-15T07:40:44;10.10;78.00
23633;DHT22;11993;48.748;9.166;2024-02-15T07:43:15;10.20;78.10
23633;DHT22;11993;48.748;9.166;2024-02-15T07:45:41;10.30;77.20
23633;DHT22;11993;48.748;9.166;2024-02-15T07:48:07;10.30;76.90
23633;DHT22;11993;48.748;9.166;2024-02-15T07:50:33;10.60;76.40
23633;DHT22;11993;48.748;9.166;2024-02-15T07:52:58;10.60;76.00
23633;DHT22;11993;48.748;9.166;2024-02-15T07:55:24;10.60;75.90
23633;DHT22;11993;48.748;9.166;2024-02-15T07:57:53;10.60;76.20
23633;DHT22;11993;48.748;9.166;2024-02-15T08:00:19;10.80;75.40
23633;DHT22;11993;48.748;9.166;2024-02-15T08:02:45;10.60;75.90
23633;DHT22;11993;48.748;9.166;2024-02-15T08:05:11;10.70;76.20
23633;DHT22;11993;48.748;9.166;2024-02-15T08:07:40;10.90;75.50
23633;DHT22;11993;48.748;9.166;2024-02-15T08:10:06;10.90;75.80
23633;DHT22;11993;48.748;9.166;2024-02-15T08:12:41;11.00;75.30
23633;DHT22;11993;48.748;9.166;2024-02-15T08:15:07;11.30;73.90
23633;DHT22;11993;48.748;9.166;2024-02-15T08:17:38;11.50;73.80
23633;DHT22;11993;48.748;9.166;2024-02-15T08:20:06;11.40;73.70
23633;DHT22;11993;48.748;9.166;2024-02-15T08:22:33;11.40;73.90
23633;DHT22;11993;48.748;9.166;2024-02-15T08:24:59;11.00;75.00
23633;DHT22;11993;48.748;9.166;2024-02-15T08:27:25;11.10;74.90
23633;DHT22;11993;48.748;9.166;2024-02-15T08:29:52;11.10;75.30
23633;DHT22;11993;48.748;9.166;2024-02-15T08:32:17;11.10;74.90
23633;DHT22;11993;48.748;9.166;2024-02-15T08:34:43;11.40;74.60
23633;DHT22;11993;48.748;9.166;2024-02-15T08:37:09;11.70;73.30
23633;DHT22;11993;48.748;9.166;2024-02-15T08:39:35;11.70;72.50
23633;DHT22;11993;48.748;9.166;2024-02-15T08:42:00;11.70;72.60
23633;DHT22;11993;48.748;9.166;2024-02-15T08:44:26;11.80;72.80
23633;DHT22;11993;48.748;9.166;2024-02-15T08:46:51;11.90;72.40
23633;DHT22;11993;48.748;9.166;2024-02-15T08:49:17;11.80;73.00
23633;DHT22;11993;48.748;9.166;2024-02-15T08:51:42;11.80;73.00
23633;DHT22;11993;48.748;9.166;2024-02-15T08:54:08;11.50;74.00
23633;DHT22;11993;48.748;9.166;2024-02-15T08:56:35;11.50;74.20
23633;DHT22;11993;48.748;9.166;2024-02-15T08:59:01;11.20;74.60
23633;DHT22;11993;48.748;9.166;2024-02-15T09:01:26;11.40;74.10
23633;DHT22;11993;48.748;9.166;2024-02-15T09:03:52;11.30;74.20
23633;DHT22;11993;48.748;9.166;2024-02-15T09:06:17;11.60;73.70
23633;DHT22;11993;48.748;9.166;2024-02-15T09:08:43;11.70;73.30
23633;DHT22;11993;48.748;9.166;2024-02-15T09:11:08;11.90;73.30
23633;DHT22;11993;48.748;9.166;2024-02-15T09:13:37;11.90;73.00
23633;DHT22;11993;48.748;9.166;2024-02-15T09:16:03;12.00;72.10
23633;DHT22;11993;48.748;9.166;2024-02-15T09:18:28;12.30;71.40
23633;DHT22;11993;48.748;9.166;2024-02-15T09:20:54;12.40;71.20
23633;DHT22;11993;48.748;9.166;2024-02-15T09:23:21;12.80;70.10
23633;DHT22;11993;48.748;9.166;2024-02-15T09:25:49;13.00;70.20
23633;DHT22;11993;48.748;9.166;2024-02-15T09:28:17;13.20;69.10
23633;DHT22;11993;48.748;9.166;2024-02-15T09:30:48;13.20;69.20
23633;DHT22;11993;48.748;9.166;2024-02-15T09:33:13;13.30;68.80
23633;DHT22;11993;48.748;9.166;2024-02-15T09:35:39;13.40;67.20
23633;DHT22;11993;48.748;9.166;2024-02-15T09:38:04;14.00;66.20
23633;DHT22;11993;48.748;9.166;2024-02-15T09:40:31;14.20;65.20
23633;DHT22;11993;48.748;9.166;2024-02-15T09:42:57;15.00;63.60
23633;DHT22;11993;48.748;9.166;2024-02-15T09:45:25;15.10;63.10
23633;DHT22;11993;48.748;9.166;2024-02-15T09:47:50;15.00;62.70
23633;DHT22;11993;48.748;9.166;2024-02-15T09:50:18;15.30;62.30
23633;DHT22;11993;48.748;9.166;2024-02-15T09:52:45;14.90;62.70
23633;DHT22;11993;48.748;9.166;2024-02-15T09:55:11;15.40;61.90
23633;DHT22;11993;48.748;9.166;2024-02-15T09:57:39;15.80;59.80
23633;DHT22;11993;48.748;9.166;2024-02-15T10:00:07;15.60;58.80
23633;DHT22;11993;48.748;9.166;2024-02-15T10:02:35;15.30;61.40
23633;DHT22;11993;48.748;9.166;2024-02-15T10:05:02;16.30;58.70
23633;DHT22;11993;48.748;9.166;2024-02-15T10:07:28;16.10;57.70
23633;DHT22;11993;48.748;9.166;2024-02-15T10:09:54;16.60;57.10
23633;DHT22;11993;48.748;9.166;2024-02-15T10:12:20;17.30;56.00
23633;DHT22;11993;48.748;9.166;2024-02-15T10:14:50;17.50;55.20
23633;DHT22;11993;48.748;9.166;2024-02-15T10:17:18;16.90;55.50
23633;DHT22;11993;48.748;9.166;2024-02-15T10:19:44;17.40;54.40
23633;DHT22;11993;48.748;9.166;2024-02-15T10:22:10;16.60;55.10
23633;DHT22;11993;48.748;9.166;2024-02-15T10:24:37;17.20;54.50
23633;DHT22;11993;48.748;9.166;2024-02-15T10:27:05;17.10;53.90
23633;DHT22;11993;48.748;9.166;2024-02-15T10:29:33;17.50;53.00
23633;DHT22;11993;48.748;9.166;2024-02-15T10:32:01;16.80;53.90
23633;DHT22;11993;48.748;9.166;2024-02-15T10:34:28;17.00;53.20
23633;DHT22;11993;48.748;9.166;2024-02-15T10:37:13;17.00;52.60
23633;DHT22;11993;48.748;9.166;2024-02-15T10:39:39;17.20;52.90
23633;DHT22;11993;48.748;9.166;2024-02-15T10:42:07;16.90;53.90
23633;DHT22;11993;48.748;9.166;2024-02-15T10:44:33;16.40;54.60
23633;DHT22;11993;48.748;9.166;2024-02-15T10:47:01;17.20;52.70
23633;DHT22;11993;48.748;9.166;2024-02-15T10:49:32;17.40;52.20
23633;DHT22;11993;48.748;9.166;2024-02-15T10:52:00;17.50;51.80
23633;DHT22;11993;48.748;9.166;2024-02-15T10:57:05;17.70;51.10
23633;DHT22;11993;48.748;9.166;2024-02-15T10:59:34;17.30;52.20
23633;DHT22;11993;48.748;9.166;2024-02-15T11:02:22;17.70;51.80
23633;DHT22;11993;48.748;9.166;2024-02-15T11:04:52;17.80;51.40
23633;DHT22;11993;48.748;9.166;2024-02-15T11:07:24;17.70;51.40
23633;DHT22;11993;48.748;9.166;2024-02-15T11:09:50;18.50;49.80
23633;DHT22;11993;48.748;9.166;2024-02-15T11:12:17;18.30;50.00
23633;DHT22;11993;48.748;9.166;2024-02-15T11:14:44;18.20;50.20
23633;DHT22;11993;48.748;9.166;2024-02-15T11:17:10;18.30;51.10
23633;DHT22;11993;48.748;9.166;2024-02-15T11:22:14;19.60;47.70
23633;DHT22;11993;48.748;9.166;2024-02-15T11:24:52;20.60;47.10
23633;DHT22;11993;48.748;9.166;2024-02-15T11:27:25;20.00;47.80
23633;DHT22;11993;48.748;9.166;2024-02-15T11:29:52;19.70;47.50
23633;DHT22;11993;48.748;9.166;2024-02-15T11:32:40;19.90;48.50
23633;DHT22;11993;48.748;9.166;2024-02-15T11:35:09;20.60;46.10
23633;DHT22;11993;48.748;9.166;2024-02-15T11:40:20;20.80;44.00
23633;DHT22;11993;48.748;9.166;2024-02-15T11:43:05;21.10;44.30
23633;DHT22;11993;48.748;9.166;2024-02-15T11:45:31;21.10;44.60
23633;DHT22;11993;48.748;9.166;2024-02-15T11:48:07;20.30;44.80
23633;DHT22;11993;48.748;9.166;2024-02-15T11:50:36;18.90;49.30
23633;DHT22;11993;48.748;9.166;2024-02-15T11:53:04;19.60;49.80
23633;DHT22;11993;48.748;9.166;2024-02-15T11:55:37;20.00;46.80
23633;DHT22;11993;48.748;9.166;2024-02-15T11:58:04;20.30;47.10
23633;DHT22;11993;48.748;9.166;2024-02-15T12:00:32;19.80;47.50
23633;DHT22;11993;48.748;9.166;2024-02-15T12:03:17;20.00;46.80
23633;DHT22;11993;48.748;9.166;2024-02-15T12:06:01;19.80;46.00
23633;DHT22;11993;48.748;9.166;2024-02-15T12:08:50;19.60;48.20
23633;DHT22;11993;48.748;9.166;2024-02-15T12:11:35;19.90;48.30
23633;DHT22;11993;48.748;9.166;2024-02-15T12:14:19;20.60;46.70
23633;DHT22;11993;48.748;9.166;2024-02-15T12:17:08;19.10;48.70
23633;DHT22;11993;48.748;9.166;2024-02-15T12:19:54;19.10;47.10
23633;DHT22;11993;48.748;9.166;2024-02-15T12:22:25;19.20;46.90
23633;DHT22;11993;48.748;9.166;2024-02-15T12:25:00;19.90;46.70
23633;DHT22;11993;48.748;9.166;2024-02-15T12:27:26;19.50;46.30
23633;DHT22;11993;48.748;9.166;2024-02-15T12:29:56;19.70;45.60
23633;DHT22;11993;48.748;9.166;2024-02-15T12:32:24;19.20;46.20
23633;DHT22;11993;48.748;9.166;2024-02-15T12:34:50;19.10;48.30
23633;DHT22;11993;48.748;9.166;2024-02-15T12:37:20;19.70;46.70
23633;DHT22;11993;48.748;9.166;2024-02-15T12:39:51;19.50;46.50
23633;DHT22;11993;48.748;9.166;2024-02-15T12:42:17;19.80;46.50
23633;DHT22;11993;48.748;9.166;2024-02-15T12:44:47;19.50;45.80
23633;DHT22;11993;48.748;9.166;2024-02-15T12:47:18;19.30;46.60
23633;DHT22;11993;48.748;9.166;2024-02-15T12:49:44;18.70;47.30
23633;DHT22;11993;48.748;9.166;2024-02-15T12:52:38;19.20;46.10
23633;DHT22;11993;48.748;9.166;2024-02-15T12:55:13;19.50;46.00
23633;DHT22;11993;48.748;9.166;2024-02-15T12:57:40;19.20;45.40
23633;DHT22;11993;48.748;9.166;2024-02-15T13:00:10;19.40;45.30
23633;DHT22;11993;48.748;9.166;2024-02-15T13:02:44;18.70;48.80
23633;DHT22;11993;48.748;9.166;2024-02-15T13:05:09;18.00;49.90
23633;DHT22;11993;48.748;9.166;2024-02-15T13:07:38;17.70;52.10
23633;DHT22;11993;48.748;9.166;2024-02-15T13:10:04;17.90;51.10
23633;DHT22;11993;48.748;9.166;2024-02-15T13:12:33;18.00;51.00
23633;DHT22;11993;48.748;9.166;2024-02-15T13:15:01;17.50;52.20
23633;DHT22;11993;48.748;9.166;2024-02-15T13:17:29;17.10;53.80
23633;DHT22;11993;48.748;9.166;2024-02-15T13:19:54;17.30;53.00
23633;DHT22;11993;48.748;9.166;2024-02-15T13:22:28;17.60;53.00
23633;DHT22;11993;48.748;9.166;2024-02-15T13:24:54;17.10;53.60
23633;DHT22;11993;48.748;9.166;2024-02-15T13:27:20;17.20;53.40
23633;DHT22;11993;48.748;9.166;2024-02-15T13:29:48;17.30;53.40
23633;DHT22;11993;48.748;9.166;2024-02-15T13:32:14;17.10;53.40
23633;DHT22;11993;48.748;9.166;2024-02-15T13:34:42;17.00;54.00
23633;DHT22;11993;48.748;9.166;2024-02-15T13:37:08;16.90;53.50
23633;DHT22;11993;48.748;9.166;2024-02-15T13:39:33;16.50;55.10
23633;DHT22;11993;48.748;9.166;2024-02-15T13:42:02;16.60;55.60
23633;DHT22;11993;48.748;9.166;2024-02-15T13:44:28;16.90;54.80
23633;DHT22;11993;48.748;9.166;2024-02-15T13:46:56;16.80;55.10
23633;DHT22;11993;48.748;9.166;2024-02-15T13:49:22;17.00;54.20
23633;DHT22;11993;48.748;9.166;2024-02-15T13:51:48;17.50;53.30
23633;DHT22;11993;48.748;9.166;2024-02-15T13:54:14;17.00;53.90
23633;DHT22;11993;48.748;9.166;2024-02-15T13:56:40;17.30;53.40
23633;DHT22;11993;48.748;9.166;2024-02-15T13:59:06;17.00;53.50
23633;DHT22;11993;48.748;9.166;2024-02-15T14:01:31;17.10;53.70
23633;DHT22;11993;48.748;9.166;2024-02-15T14:03:57;17.10;53.80
23633;DHT22;11993;48.748;9.166;2024-02-15T14:06:22;17.30;53.60
23633;DHT22;11993;48.748;9.166;2024-02-15T14:08:52;17.20;52.80
23633;DHT22;11993;48.748;9.166;2024-02-15T14:11:17;17.30;52.90
23633;DHT22;11993;48.748;9.166;2024-02-15T14:13:43;17.20;53.10
23633;DHT22;11993;48.748;9.166;2024-02-15T14:16:09;17.20;53.20
23633;DHT22;11993;48.748;9.166;2024-02-15T14:18:34;17.20;53.20
23633;DHT22;11993;48.748;9.166;2024-02-15T14:21:00;17.10;53.90
23633;DHT22;11993;48.748;9.166;2024-02-15T14:23:28;17.00;53.90
23633;DHT22;11993;48.748;9.166;2024-02-15T14:25:54;16.90;54.40
23633;DHT22;11993;48.748;9.166;2024-02-15T14:28:38;16.50;55.90
23633;DHT22;11993;48.748;9.166;2024-02-15T14:31:07;16.60;56.00
23633;DHT22;11993;48.748;9.166;2024-02-15T14:33:51;16.60;55.50
23633;DHT22;11993;48.748;9.166;2024-02-15T14:36:17;16.60;55.70
23633;DHT22;11993;48.748;9.166;2024-02-15T14:38:43;16.50;55.50
23633;DHT22;11993;48.748;9.166;2024-02-15T14:41:10;16.60;55.90
23633;DHT22;11993;48.748;9.166;2024-02-15T14:43:36;16.50;55.90
23633;DHT22;11993;48.748;9.166;2024-02-15T14:46:02;16.70;55.50
23633;DHT22;11993;48.748;9.166;2024-02-15T14:48:31;16.60;55.30
23633;DHT22;11993;48.748;9.166;2024-02-15T14:50:56;17.00;55.10
23633;DHT22;11993;48.748;9.166;2024-02-15T14:53:23;17.00;55.30
23633;DHT22;11993;48.748;9.166;2024-02-15T14:55:49;17.10;54.80
23633;DHT22;11993;48.748;9.166;2024-02-15T14:58:17;17.30;54.40
23633;DHT22;11993;48.748;9.166;2024-02-15T15:00:43;17.30;54.40
23633;DHT22;11993;48.748;9.166;2024-02-15T15:03:11;17.60;53.90
23633;DHT22;11993;48.748;9.166;2024-02-15T15:06:18;17.60;53.70
23633;DHT22;11993;48.748;9.166;2024-02-15T15:18:45;17.60;53.20
23633;DHT22;11993;48.748;9.166;2024-02-15T15:21:11;17.50;53.60
23633;DHT22;11993;48.748;9.166;2024-02-15T15:23:37;17.40;54.00
23633;DHT22;11993;48.748;9.166;2024-02-15T15:26:05;17.20;54.50
23633;DHT22;11993;48.748;9.166;2024-02-15T15:28:31;17.10;54.70
23633;DHT22;11993;48.748;9.166;2024-02-15T15:30:57;17.10;54.80
23633;DHT22;11993;48.748;9.166;2024-02-15T15:33:23;17.10;54.70
23633;DHT22;11993;48.748;9.166;2024-02-15T15:35:49;17.10;54.70
23633;DHT22;11993;48.748;9.166;2024-02-15T15:38:15;16.70;55.90
23633;DHT22;11993;48.748;9.166;2024-02-15T15:40:41;16.50;56.30
23633;DHT22;11993;48.748;9.166;2024-02-15T15:43:07;16.20;56.80
23633;DHT22;11993;48.748;9.166;2024-02-15T15:45:36;16.20;57.20
23633;DHT22;11993;48.748;9.166;2024-02-15T15:48:09;16.20;57.50
23633;DHT22;11993;48.748;9.166;2024-02-15T15:50:35;16.00;58.00
23633;DHT22;11993;48.748;9.166;2024-02-15T15:53:05;15.80;58.30
23633;DHT22;11993;48.748;9.166;2024-02-15T15:55:31;15.90;58.80
23633;DHT22;11993;48.748;9.166;2024-02-15T15:57:57;15.60;59.60